sensor_id;sensor_type;location;lat;lon;timestamp;temperature;humidity
19868;DHT22;10096;51.112;6.776;2023-05-10T00:01:46;15.00;1.00
19868;DHT22;10096;51.112;6.776;2023-05-10T00:04:14;15.00;24.10
19868;DHT22;10096;51.112;6.776;2023-05-10T00:06:42;15.10;1.00
19868;DHT22;10096;51.112;6.776;2023-05-10T00:09:12;15.20;1.00
19868;DHT22;10096;51.112;6.776;2023-05-10T00:11:40;15.10;99.90
19868;DHT22;10096;51.112;6.776;2023-05-10T00:14:15;15.10;1.00
19868;DHT22;10096;51.112;6.776;2023-05-10T00:16:45;15.10;1.00
19868;DHT22;10096;51.112;6.776;2023-05-10T00:19:13;15.10;1.00
19868;DHT22;10096;51.112;6.776;2023-05-10T00:21:44;15.20;1.00
19868;DHT22;10096;51.112;6.776;2023-05-10T00:24:14;15.10;1.00
19868;DHT22;10096;51.112;6.776;2023-05-10T00:26:44;15.10;1.00
19868;DHT22;10096;51.112;6.776;2023-05-10T00:29:15;15.10;1.00
19868;DHT22;10096;51.112;6.776;2023-05-10T00:31:47;15.20;99.90
19868;DHT22;10096;51.112;6.776;2023-05-10T00:34:15;15.10;99.90
19868;DHT22;10096;51.112;6.776;2023-05-10T00:36:45;15.00;1.00
19868;DHT22;10096;51.112;6.776;2023-05-10T00:39:13;15.00;1.00
19868;DHT22;10096;51.112;6.776;2023-05-10T00:41:44;15.00;99.90
19868;DHT22;10096;51.112;6.776;2023-05-10T00:44:17;14.60;1.00
19868;DHT22;10096;51.112;6.776;2023-05-10T00:46:47;15.00;1.00
19868;DHT22;10096;51.112;6.776;2023-05-10T00:49:18;15.10;1.00
19868;DHT22;10096;51.112;6.776;2023-05-10T00:51:50;15.10;1.00
19868;DHT22;10096;51.112;6.776;2023-05-10T00:54:25;15.10;1.00
19868;DHT22;10096;51.112;6.776;2023-05-10T00:56:58;15.20;1.00
19868;DHT22;10096;51.112;6.776;2023-05-10T00:59:28;15.20;99.90
19868;DHT22;10096;51.112;6.776;2023-05-10T01:01:57;15.20;99.90
19868;DHT22;10096;51.112;6.776;2023-05-10T01:04:25;15.10;99.90
19868;DHT22;10096;51.112;6.776;2023-05-10T01:06:55;15.10;99.90
19868;DHT22;10096;51.112;6.776;2023-05-10T01:09:23;15.20;99.90
19868;DHT22;10096;51.112;6.776;2023-05-10T01:11:54;15.20;1.00
19868;DHT22;10096;51.112;6.776;2023-05-10T01:14:23;15.10;1.00
19868;DHT22;10096;51.112;6.776;2023-05-10T01:17:05;15.10;1.00
19868;DHT22;10096;51.112;6.776;2023-05-10T01:19:35;15.30;1.00
19868;DHT22;10096;51.112;6.776;2023-05-10T01:22:09;15.10;1.00
19868;DHT22;10096;51.112;6.776;2023-05-10T01:24:52;15.10;1.00
19868;DHT22;10096;51.112;6.776;2023-05-10T01:27:47;15.00;99.90
19868;DHT22;10096;51.112;6.776;2023-05-10T01:33:27;15.00;1.00
19868;DHT22;10096;51.112;6.776;2023-05-10T01:36:05;15.00;1.00
19868;DHT22;10096;51.112;6.776;2023-05-10T01:38:40;15.00;99.90
19868;DHT22;10096;51.112;6.776;2023-05-10T01:41:16;14.90;99.90
19868;DHT22;10096;51.112;6.776;2023-05-10T01:43:52;15.00;99.90
19868;DHT22;10096;51.112;6.776;2023-05-10T01:46:27;15.00;1.00
19868;DHT22;10096;51.112;6.776;2023-05-10T01:49:08;14.90;99.90
19868;DHT22;10096;51.112;6.776;2023-05-10T01:51:43;14.90;99.90
19868;DHT22;10096;51.112;6.776;2023-05-10T01:54:16;15.00;99.90
19868;DHT22;10096;51.112;6.776;2023-05-10T01:56:49;14.90;99.90
19868;DHT22;10096;51.112;6.776;2023-05-10T01:59:23;14.90;99.90
19868;DHT22;10096;51.112;6.776;2023-05-10T02:01:58;14.80;99.90
19868;DHT22;10096;51.112;6.776;2023-05-10T02:04:29;14.90;99.90
19868;DHT22;10096;51.112;6.776;2023-05-10T02:06:58;14.90;99.90
19868;DHT22;10096;51.112;6.776;2023-05-10T02:09:31;14.90;99.90
19868;DHT22;10096;51.112;6.776;2023-05-10T02:12:02;14.90;99.90
19868;DHT22;10096;51.112;6.776;2023-05-10T02:14:35;15.00;99.90
19868;DHT22;10096;51.112;6.776;2023-05-10T02:17:10;15.00;99.90
19868;DHT22;10096;51.112;6.776;2023-05-10T02:19:42;14.90;1.00
19868;DHT22;10096;51.112;6.776;2023-05-10T02:22:15;15.00;1.00
19868;DHT22;10096;51.112;6.776;2023-05-10T02:24:44;15.00;1.00
19868;DHT22;10096;51.112;6.776;2023-05-10T02:27:14;15.00;99.90
19868;DHT22;10096;51.112;6.776;2023-05-10T02:29:43;15.00;1.00
19868;DHT22;10096;51.112;6.776;2023-05-10T02:32:12;15.00;99.90
19868;DHT22;10096;51.112;6.776;2023-05-10T02:34:42;15.00;99.90
19868;DHT22;10096;51.112;6.776;2023-05-10T02:37:13;14.60;99.90
19868;DHT22;10096;51.112;6.776;2023-05-10T02:39:42;14.90;99.90
19868;DHT22;10096;51.112;6.776;2023-05-10T02:42:15;14.80;1.00
19868;DHT22;10096;51.112;6.776;2023-05-10T02:44:49;14.70;1.00
19868;DHT22;10096;51.112;6.776;2023-05-10T02:47:21;14.60;1.00
19868;DHT22;10096;51.112;6.776;2023-05-10T02:49:50;14.80;1.00
19868;DHT22;10096;51.112;6.776;2023-05-10T02:52:23;14.60;1.00
19868;DHT22;10096;51.112;6.776;2023-05-10T02:54:55;14.40;99.90
19868;DHT22;10096;51.112;6.776;2023-05-10T02:57:30;14.20;99.90
19868;DHT22;10096;51.112;6.776;2023-05-10T03:00:08;14.50;1.00
19868;DHT22;10096;51.112;6.776;2023-05-10T03:02:40;14.50;1.00
19868;DHT22;10096;51.112;6.776;2023-05-10T03:05:10;14.50;1.00
19868;DHT22;10096;51.112;6.776;2023-05-10T03:07:38;14.50;1.00
19868;DHT22;10096;51.112;6.776;2023-05-10T03:10:07;14.40;1.00
19868;DHT22;10096;51.112;6.776;2023-05-10T03:12:56;14.40;99.90
19868;DHT22;10096;51.112;6.776;2023-05-10T03:15:33;14.40;1.00
19868;DHT22;10096;51.112;6.776;2023-05-10T03:18:07;14.60;99.90
19868;DHT22;10096;51.112;6.776;2023-05-10T03:20:46;14.60;1.00
19868;DHT22;10096;51.112;6.776;2023-05-10T03:23:22;14.60;99.90
19868;DHT22;10096;51.112;6.776;2023-05-10T03:25:52;14.70;1.00
19868;DHT22;10096;51.112;6.776;2023-05-10T03:28:21;14.80;99.90
19868;DHT22;10096;51.112;6.776;2023-05-10T03:30:52;14.60;63.70
19868;DHT22;10096;51.112;6.776;2023-05-10T03:33:20;14.50;99.90
19868;DHT22;10096;51.112;6.776;2023-05-10T03:35:49;14.60;1.00
19868;DHT22;10096;51.112;6.776;2023-05-10T03:38:19;14.50;40.60
19868;DHT22;10096;51.112;6.776;2023-05-10T03:40:47;14.50;1.00
19868;DHT22;10096;51.112;6.776;2023-05-10T03:43:17;14.40;1.00
19868;DHT22;10096;51.112;6.776;2023-05-10T03:45:50;14.60;35.10
19868;DHT22;10096;51.112;6.776;2023-05-10T03:48:20;14.50;99.90
19868;DHT22;10096;51.112;6.776;2023-05-10T03:50:52;14.50;99.90
19868;DHT22;10096;51.112;6.776;2023-05-10T03:53:20;14.90;99.90
19868;DHT22;10096;51.112;6.776;2023-05-10T03:55:53;14.50;99.90
19868;DHT22;10096;51.112;6.776;2023-05-10T03:58:22;14.60;1.00
19868;DHT22;10096;51.112;6.776;2023-05-10T04:00:51;14.60;1.00
19868;DHT22;10096;51.112;6.776;2023-05-10T04:03:18;14.80;99.90
19868;DHT22;10096;51.112;6.776;2023-05-10T04:05:58;14.70;99.90
19868;DHT22;10096;51.112;6.776;2023-05-10T04:08:27;14.80;99.90
19868;DHT22;10096;51.112;6.776;2023-05-10T04:11:05;15.00;99.90
19868;DHT22;10096;51.112;6.776;2023-05-10T04:13:33;14.80;99.90
19868;DHT22;10096;51.112;6.776;2023-05-10T04:16:01;14.80;1.00
19868;DHT22;10096;51.112;6.776;2023-05-10T04:18:30;14.80;80.10
19868;DHT22;10096;51.112;6.776;2023-05-10T04:21:02;14.80;99.90
19868;DHT22;10096;51.112;6.776;2023-05-10T04:23:30;14.90;99.90
19868;DHT22;10096;51.112;6.776;2023-05-10T04:26:02;15.00;99.90
19868;DHT22;10096;51.112;6.776;2023-05-10T04:28:33;15.00;1.00
19868;DHT22;10096;51.112;6.776;2023-05-10T04:31:02;15.00;1.00
19868;DHT22;10096;51.112;6.776;2023-05-10T04:33:30;15.10;1.00
19868;DHT22;10096;51.112;6.776;2023-05-10T04:36:03;15.00;1.00
19868;DHT22;10096;51.112;6.776;2023-05-10T04:38:31;15.10;1.00
19868;DHT22;10096;51.112;6.776;2023-05-10T04:41:07;15.10;1.00
19868;DHT22;10096;51.112;6.776;2023-05-10T04:43:36;15.10;99.90
19868;DHT22;10096;51.112;6.776;2023-05-10T04:46:08;15.30;99.90
19868;DHT22;10096;51.112;6.776;2023-05-10T04:48:40;15.10;99.90
19868;DHT22;10096;51.112;6.776;2023-05-10T04:51:10;15.00;99.90
19868;DHT22;10096;51.112;6.776;2023-05-10T04:53:37;15.20;1.00
19868;DHT22;10096;51.112;6.776;2023-05-10T04:56:07;15.10;27.80
19868;DHT22;10096;51.112;6.776;2023-05-10T04:58:37;15.00;1.00
19868;DHT22;10096;51.112;6.776;2023-05-10T05:01:07;15.00;97.70
19868;DHT22;10096;51.112;6.776;2023-05-10T05:03:39;15.10;1.00
19868;DHT22;10096;51.112;6.776;2023-05-10T05:06:15;15.10;1.00
19868;DHT22;10096;51.112;6.776;2023-05-10T05:08:44;15.10;1.00
19868;DHT22;10096;51.112;6.776;2023-05-10T05:11:12;15.20;1.00
19868;DHT22;10096;51.112;6.776;2023-05-10T05:13:42;15.20;1.00
19868;DHT22;10096;51.112;6.776;2023-05-10T05:16:13;15.30;1.00
19868;DHT22;10096;51.112;6.776;2023-05-10T05:18:40;15.50;1.00
19868;DHT22;10096;51.112;6.776;2023-05-10T05:21:18;15.50;99.90
19868;DHT22;10096;51.112;6.776;2023-05-10T05:23:47;15.60;99.90
19868;DHT22;10096;51.112;6.776;2023-05-10T05:26:17;15.60;99.90
19868;DHT22;10096;51.112;6.776;2023-05-10T05:28:46;15.40;99.90
19868;DHT22;10096;51.112;6.776;2023-05-10T05:31:19;15.40;99.90
19868;DHT22;10096;51.112;6.776;2023-05-10T05:33:47;15.40;99.90
19868;DHT22;10096;51.112;6.776;2023-05-10T05:36:18;15.50;99.90
19868;DHT22;10096;51.112;6.776;2023-05-10T05:38:46;15.40;99.90
19868;DHT22;10096;51.112;6.776;2023-05-10T05:41:25;15.50;99.90
19868;DHT22;10096;51.112;6.776;2023-05-10T05:43:56;15.20;99.90
19868;DHT22;10096;51.112;6.776;2023-05-10T05:46:24;15.40;68.70
19868;DHT22;10096;51.112;6.776;2023-05-10T05:48:52;15.40;99.90
19868;DHT22;10096;51.112;6.776;2023-05-10T05:51:35;15.40;1.40
19868;DHT22;10096;51.112;6.776;2023-05-10T05:54:06;15.50;26.90
19868;DHT22;10096;51.112;6.776;2023-05-10T05:56:37;15.50;99.90
19868;DHT22;10096;51.112;6.776;2023-05-10T05:59:08;15.50;55.10
19868;DHT22;10096;51.112;6.776;2023-05-10T06:01:40;15.50;1.00
19868;DHT22;10096;51.112;6.776;2023-05-10T06:04:07;15.50;1.00
19868;DHT22;10096;51.112;6.776;2023-05-10T06:06:37;15.50;1.00
19868;DHT22;10096;51.112;6.776;2023-05-10T06:09:05;15.50;1.00
19868;DHT22;10096;51.112;6.776;2023-05-10T06:11:40;15.60;1.00
19868;DHT22;10096;51.112;6.776;2023-05-10T06:14:12;15.40;1.00
19868;DHT22;10096;51.112;6.776;2023-05-10T06:16:47;15.40;1.00
19868;DHT22;10096;51.112;6.776;2023-05-10T06:19:23;15.50;1.00
19868;DHT22;10096;51.112;6.776;2023-05-10T06:21:51;15.40;1.00
19868;DHT22;10096;51.112;6.776;2023-05-10T06:24:20;15.30;1.00
19868;DHT22;10096;51.112;6.776;2023-05-10T06:26:48;15.20;1.00
19868;DHT22;10096;51.112;6.776;2023-05-10T06:29:19;15.30;1.00
19868;DHT22;10096;51.112;6.776;2023-05-10T06:31:50;15.30;1.00
19868;DHT22;10096;51.112;6.776;2023-05-10T06:34:18;15.30;1.00
19868;DHT22;10096;51.112;6.776;2023-05-10T06:36:47;15.30;50.10
19868;DHT22;10096;51.112;6.776;2023-05-10T06:39:16;15.20;59.30
19868;DHT22;10096;51.112;6.776;2023-05-10T06:41:46;15.20;99.90
19868;DHT22;10096;51.112;6.776;2023-05-10T06:44:15;15.40;99.90
19868;DHT22;10096;51.112;6.776;2023-05-10T06:46:44;15.50;99.90
19868;DHT22;10096;51.112;6.776;2023-05-10T06:49:11;15.70;12.00
19868;DHT22;10096;51.112;6.776;2023-05-10T06:51:40;15.90;1.00
19868;DHT22;10096;51.112;6.776;2023-05-10T06:54:10;16.30;1.00
19868;DHT22;10096;51.112;6.776;2023-05-10T06:56:41;16.30;1.00
19868;DHT22;10096;51.112;6.776;2023-05-10T06:59:08;16.40;1.00
19868;DHT22;10096;51.112;6.776;2023-05-10T07:01:36;16.40;1.00
19868;DHT22;10096;51.112;6.776;2023-05-10T07:04:07;16.40;1.00
19868;DHT22;10096;51.112;6.776;2023-05-10T07:06:35;16.40;1.00
19868;DHT22;10096;51.112;6.776;2023-05-10T07:09:05;16.30;99.90
19868;DHT22;10096;51.112;6.776;2023-05-10T07:11:33;16.30;1.00
19868;DHT22;10096;51.112;6.776;2023-05-10T07:14:02;16.30;1.00
19868;DHT22;10096;51.112;6.776;2023-05-10T07:16:33;16.20;1.00
19868;DHT22;10096;51.112;6.776;2023-05-10T07:19:01;16.20;1.00
19868;DHT22;10096;51.112;6.776;2023-05-10T07:21:28;16.30;1.00
19868;DHT22;10096;51.112;6.776;2023-05-10T07:23:59;16.30;1.00
19868;DHT22;10096;51.112;6.776;2023-05-10T07:26:27;16.40;99.90
19868;DHT22;10096;51.112;6.776;2023-05-10T07:28:57;16.60;99.90
19868;DHT22;10096;51.112;6.776;2023-05-10T07:31:26;16.70;99.90
19868;DHT22;10096;51.112;6.776;2023-05-10T07:33:53;17.00;99.90
19868;DHT22;10096;51.112;6.776;2023-05-10T07:36:21;17.50;99.90
19868;DHT22;10096;51.112;6.776;2023-05-10T07:38:51;17.50;99.90
19868;DHT22;10096;51.112;6.776;2023-05-10T07:41:19;17.60;99.90
19868;DHT22;10096;51.112;6.776;2023-05-10T07:43:50;17.40;99.90
19868;DHT22;10096;51.112;6.776;2023-05-10T07:46:20;17.30;99.90
19868;DHT22;10096;51.112;6.776;2023-05-10T07:48:52;17.20;99.90
19868;DHT22;10096;51.112;6.776;2023-05-10T07:51:20;16.90;99.90
19868;DHT22;10096;51.112;6.776;2023-05-10T07:53:50;16.60;99.90
19868;DHT22;10096;51.112;6.776;2023-05-10T07:56:22;16.60;99.90
19868;DHT22;10096;51.112;6.776;2023-05-10T07:58:50;16.60;99.90
19868;DHT22;10096;51.112;6.776;2023-05-10T08:01:19;16.40;99.90
19868;DHT22;10096;51.112;6.776;2023-05-10T08:03:48;16.40;99.90
19868;DHT22;10096;51.112;6.776;2023-05-10T08:06:22;16.10;99.90
19868;DHT22;10096;51.112;6.776;2023-05-10T08:08:52;16.60;99.90
19868;DHT22;10096;51.112;6.776;2023-05-10T08:11:20;16.60;99.90
19868;DHT22;10096;51.112;6.776;2023-05-10T08:13:58;16.70;99.90
19868;DHT22;10096;51.112;6.776;2023-05-10T08:16:31;16.60;99.90
19868;DHT22;10096;51.112;6.776;2023-05-10T08:21:37;16.90;99.90
19868;DHT22;10096;51.112;6.776;2023-05-10T08:24:11;17.30;77.30
19868;DHT22;10096;51.112;6.776;2023-05-10T08:26:49;17.30;1.00
19868;DHT22;10096;51.112;6.776;2023-05-10T08:29:16;18.00;1.00
19868;DHT22;10096;51.112;6.776;2023-05-10T08:31:46;18.30;1.00
19868;DHT22;10096;51.112;6.776;2023-05-10T08:34:13;18.90;1.00
19868;DHT22;10096;51.112;6.776;2023-05-10T08:36:47;19.60;1.00
19868;DHT22;10096;51.112;6.776;2023-05-10T08:39:18;19.80;1.00
19868;DHT22;10096;51.112;6.776;2023-05-10T08:41:47;19.70;1.00
19868;DHT22;10096;51.112;6.776;2023-05-10T08:44:24;19.50;1.00
19868;DHT22;10096;51.112;6.776;2023-05-10T08:46:57;19.00;1.00
19868;DHT22;10096;51.112;6.776;2023-05-10T08:49:27;18.40;1.00
19868;DHT22;10096;51.112;6.776;2023-05-10T08:52:02;17.80;1.00
19868;DHT22;10096;51.112;6.776;2023-05-10T08:54:34;17.50;1.00
19868;DHT22;10096;51.112;6.776;2023-05-10T08:57:02;17.40;1.00
19868;DHT22;10096;51.112;6.776;2023-05-10T08:59:37;17.20;1.00
19868;DHT22;10096;51.112;6.776;2023-05-10T09:02:06;17.10;1.00
19868;DHT22;10096;51.112;6.776;2023-05-10T09:04:36;17.10;1.00
19868;DHT22;10096;51.112;6.776;2023-05-10T09:07:08;17.20;1.00
19868;DHT22;10096;51.112;6.776;2023-05-10T09:09:40;17.40;1.00
19868;DHT22;10096;51.112;6.776;2023-05-10T09:12:08;17.40;1.00
19868;DHT22;10096;51.112;6.776;2023-05-10T09:14:42;17.40;1.00
19868;DHT22;10096;51.112;6.776;2023-05-10T09:17:12;17.30;1.00
19868;DHT22;10096;51.112;6.776;2023-05-10T09:19:39;17.00;1.00
19868;DHT22;10096;51.112;6.776;2023-05-10T09:22:12;17.00;1.00
19868;DHT22;10096;51.112;6.776;2023-05-10T09:24:45;16.70;1.00
19868;DHT22;10096;51.112;6.776;2023-05-10T09:27:13;16.60;1.00
19868;DHT22;10096;51.112;6.776;2023-05-10T09:29:44;16.70;1.00
19868;DHT22;10096;51.112;6.776;2023-05-10T09:32:12;16.50;1.00
19868;DHT22;10096;51.112;6.776;2023-05-10T09:34:40;16.70;1.00
19868;DHT22;10096;51.112;6.776;2023-05-10T09:37:12;16.40;1.00
19868;DHT22;10096;51.112;6.776;2023-05-10T09:39:40;16.40;1.00
19868;DHT22;10096;51.112;6.776;2023-05-10T09:42:09;16.70;1.00
19868;DHT22;10096;51.112;6.776;2023-05-10T09:44:42;16.50;1.00
19868;DHT22;10096;51.112;6.776;2023-05-10T09:47:17;16.70;1.00
19868;DHT22;10096;51.112;6.776;2023-05-10T09:49:49;17.00;1.00
19868;DHT22;10096;51.112;6.776;2023-05-10T09:52:19;17.30;1.00
19868;DHT22;10096;51.112;6.776;2023-05-10T09:54:54;17.80;1.00
19868;DHT22;10096;51.112;6.776;2023-05-10T09:57:24;17.70;1.00
19868;DHT22;10096;51.112;6.776;2023-05-10T09:59:53;17.80;1.00
19868;DHT22;10096;51.112;6.776;2023-05-10T10:02:28;17.90;1.00
19868;DHT22;10096;51.112;6.776;2023-05-10T10:04:56;17.80;1.00
19868;DHT22;10096;51.112;6.776;2023-05-10T10:07:30;17.90;1.00
19868;DHT22;10096;51.112;6.776;2023-05-10T10:09:58;18.20;1.00
19868;DHT22;10096;51.112;6.776;2023-05-10T10:12:28;18.40;1.00
19868;DHT22;10096;51.112;6.776;2023-05-10T10:15:00;18.50;1.00
19868;DHT22;10096;51.112;6.776;2023-05-10T10:17:29;18.50;1.00
19868;DHT22;10096;51.112;6.776;2023-05-10T10:19:58;18.40;1.00
19868;DHT22;10096;51.112;6.776;2023-05-10T10:22:29;18.70;1.00
19868;DHT22;10096;51.112;6.776;2023-05-10T10:24:57;18.80;1.00
19868;DHT22;10096;51.112;6.776;2023-05-10T10:27:37;18.80;1.00
19868;DHT22;10096;51.112;6.776;2023-05-10T10:30:28;19.00;1.00
19868;DHT22;10096;51.112;6.776;2023-05-10T10:33:19;19.20;1.00
19868;DHT22;10096;51.112;6.776;2023-05-10T10:35:58;19.40;99.90
19868;DHT22;10096;51.112;6.776;2023-05-10T10:41:30;19.50;99.90
19868;DHT22;10096;51.112;6.776;2023-05-10T10:44:36;19.40;99.90
19868;DHT22;10096;51.112;6.776;2023-05-10T10:47:07;19.40;99.90
19868;DHT22;10096;51.112;6.776;2023-05-10T10:49:48;19.00;99.90
19868;DHT22;10096;51.112;6.776;2023-05-10T10:52:25;19.10;99.90
19868;DHT22;10096;51.112;6.776;2023-05-10T10:55:03;19.30;99.90
19868;DHT22;10096;51.112;6.776;2023-05-10T10:57:43;19.70;99.90
19868;DHT22;10096;51.112;6.776;2023-05-10T11:00:23;19.70;99.90
19868;DHT22;10096;51.112;6.776;2023-05-10T11:02:53;19.80;99.90
19868;DHT22;10096;51.112;6.776;2023-05-10T11:05:36;19.70;99.90
19868;DHT22;10096;51.112;6.776;2023-05-10T11:08:12;19.50;99.90
19868;DHT22;10096;51.112;6.776;2023-05-10T11:10:54;19.00;99.90
19868;DHT22;10096;51.112;6.776;2023-05-10T11:13:34;19.10;99.90
19868;DHT22;10096;51.112;6.776;2023-05-10T11:16:17;19.10;99.90
19868;DHT22;10096;51.112;6.776;2023-05-10T11:19:01;19.40;99.90
19868;DHT22;10096;51.112;6.776;2023-05-10T11:21:31;19.40;99.90
19868;DHT22;10096;51.112;6.776;2023-05-10T11:24:03;19.40;99.90
19868;DHT22;10096;51.112;6.776;2023-05-10T11:26:42;19.50;99.90
19868;DHT22;10096;51.112;6.776;2023-05-10T11:29:11;19.60;99.90
19868;DHT22;10096;51.112;6.776;2023-05-10T11:31:45;19.40;99.90
19868;DHT22;10096;51.112;6.776;2023-05-10T11:34:28;19.00;99.90
19868;DHT22;10096;51.112;6.776;2023-05-10T11:37:00;18.90;99.90
19868;DHT22;10096;51.112;6.776;2023-05-10T11:39:30;18.70;99.90
19868;DHT22;10096;51.112;6.776;2023-05-10T11:41:59;18.40;99.90
19868;DHT22;10096;51.112;6.776;2023-05-10T11:44:30;18.30;1.00
19868;DHT22;10096;51.112;6.776;2023-05-10T11:47:00;17.90;1.00
19868;DHT22;10096;51.112;6.776;2023-05-10T11:49:28;17.80;1.00
19868;DHT22;10096;51.112;6.776;2023-05-10T11:52:06;17.60;1.00
19868;DHT22;10096;51.112;6.776;2023-05-10T11:54:46;17.40;1.00
19868;DHT22;10096;51.112;6.776;2023-05-10T11:57:25;17.70;1.00
19868;DHT22;10096;51.112;6.776;2023-05-10T11:59:59;17.80;1.00
19868;DHT22;10096;51.112;6.776;2023-05-10T12:02:30;17.90;1.00
19868;DHT22;10096;51.112;6.776;2023-05-10T12:04:58;18.10;1.00
19868;DHT22;10096;51.112;6.776;2023-05-10T12:07:28;18.20;1.00
19868;DHT22;10096;51.112;6.776;2023-05-10T12:10:06;18.40;1.00
19868;DHT22;10096;51.112;6.776;2023-05-10T12:12:45;18.70;1.00
19868;DHT22;10096;51.112;6.776;2023-05-10T12:15:19;19.00;1.00
19868;DHT22;10096;51.112;6.776;2023-05-10T12:17:48;19.20;1.00
19868;DHT22;10096;51.112;6.776;2023-05-10T12:20:17;19.70;1.00
19868;DHT22;10096;51.112;6.776;2023-05-10T12:22:46;20.10;99.90
19868;DHT22;10096;51.112;6.776;2023-05-10T12:25:16;20.50;99.90
19868;DHT22;10096;51.112;6.776;2023-05-10T12:27:56;20.30;99.90
19868;DHT22;10096;51.112;6.776;2023-05-10T12:30:25;20.70;99.90
19868;DHT22;10096;51.112;6.776;2023-05-10T12:33:10;20.30;99.90
19868;DHT22;10096;51.112;6.776;2023-05-10T12:35:47;20.00;99.90
19868;DHT22;10096;51.112;6.776;2023-05-10T12:38:29;20.40;99.90
19868;DHT22;10096;51.112;6.776;2023-05-10T12:41:05;20.70;99.90
19868;DHT22;10096;51.112;6.776;2023-05-10T12:43:39;20.70;99.90
19868;DHT22;10096;51.112;6.776;2023-05-10T12:46:31;20.20;99.90
19868;DHT22;10096;51.112;6.776;2023-05-10T12:49:00;20.10;99.90
19868;DHT22;10096;51.112;6.776;2023-05-10T12:51:35;19.80;99.90
19868;DHT22;10096;51.112;6.776;2023-05-10T12:54:05;19.90;99.90
19868;DHT22;10096;51.112;6.776;2023-05-10T12:56:34;19.60;99.90
19868;DHT22;10096;51.112;6.776;2023-05-10T12:59:04;19.50;99.90
19868;DHT22;10096;51.112;6.776;2023-05-10T13:01:32;19.40;99.90
19868;DHT22;10096;51.112;6.776;2023-05-10T13:04:04;19.60;99.90
19868;DHT22;10096;51.112;6.776;2023-05-10T13:06:32;19.90;99.90
19868;DHT22;10096;51.112;6.776;2023-05-10T13:09:00;20.40;99.90
19868;DHT22;10096;51.112;6.776;2023-05-10T13:11:28;20.30;99.90
19868;DHT22;10096;51.112;6.776;2023-05-10T13:13:56;20.10;99.90
19868;DHT22;10096;51.112;6.776;2023-05-10T13:16:25;19.80;99.90
19868;DHT22;10096;51.112;6.776;2023-05-10T13:19:03;19.80;99.90
19868;DHT22;10096;51.112;6.776;2023-05-10T13:21:35;19.50;99.90
19868;DHT22;10096;51.112;6.776;2023-05-10T13:24:03;19.20;99.90
19868;DHT22;10096;51.112;6.776;2023-05-10T13:26:34;19.40;99.90
19868;DHT22;10096;51.112;6.776;2023-05-10T13:29:03;19.50;99.90
19868;DHT22;10096;51.112;6.776;2023-05-10T13:31:33;19.40;99.90
19868;DHT22;10096;51.112;6.776;2023-05-10T13:34:02;19.00;99.90
19868;DHT22;10096;51.112;6.776;2023-05-10T13:36:32;19.00;99.90
19868;DHT22;10096;51.112;6.776;2023-05-10T13:39:00;18.80;99.90
19868;DHT22;10096;51.112;6.776;2023-05-10T13:41:32;18.90;99.90
19868;DHT22;10096;51.112;6.776;2023-05-10T13:44:00;18.80;99.90
19868;DHT22;10096;51.112;6.776;2023-05-10T13:46:29;18.70;99.90
19868;DHT22;10096;51.112;6.776;2023-05-10T13:48:59;18.70;99.90
19868;DHT22;10096;51.112;6.776;2023-05-10T13:51:30;18.80;99.90
19868;DHT22;10096;51.112;6.776;2023-05-10T13:54:01;18.80;99.90
19868;DHT22;10096;51.112;6.776;2023-05-10T13:56:29;18.70;99.90
19868;DHT22;10096;51.112;6.776;2023-05-10T13:58:57;18.60;99.90
19868;DHT22;10096;51.112;6.776;2023-05-10T14:01:33;18.50;1.00
19868;DHT22;10096;51.112;6.776;2023-05-10T14:04:03;18.20;1.00
19868;DHT22;10096;51.112;6.776;2023-05-10T14:06:32;18.00;1.00
19868;DHT22;10096;51.112;6.776;2023-05-10T14:09:02;18.00;1.00
19868;DHT22;10096;51.112;6.776;2023-05-10T14:11:30;17.90;1.00
19868;DHT22;10096;51.112;6.776;2023-05-10T14:13:59;17.80;1.00
19868;DHT22;10096;51.112;6.776;2023-05-10T14:16:27;17.80;1.00
19868;DHT22;10096;51.112;6.776;2023-05-10T14:18:55;17.80;1.00
19868;DHT22;10096;51.112;6.776;2023-05-10T14:21:25;17.80;1.00
19868;DHT22;10096;51.112;6.776;2023-05-10T14:23:54;17.80;1.00
19868;DHT22;10096;51.112;6.776;2023-05-10T14:26:23;17.70;1.00
19868;DHT22;10096;51.112;6.776;2023-05-10T14:29:11;17.60;1.00
19868;DHT22;10096;51.112;6.776;2023-05-10T14:31:42;17.60;1.00
19868;DHT22;10096;51.112;6.776;2023-05-10T14:34:14;17.50;1.00
19868;DHT22;10096;51.112;6.776;2023-05-10T14:36:43;17.50;1.00
19868;DHT22;10096;51.112;6.776;2023-05-10T14:39:11;17.60;1.00
19868;DHT22;10096;51.112;6.776;2023-05-10T14:41:40;18.00;1.00
19868;DHT22;10096;51.112;6.776;2023-05-10T14:44:11;17.80;1.00
19868;DHT22;10096;51.112;6.776;2023-05-10T14:46:41;18.20;1.00
19868;DHT22;10096;51.112;6.776;2023-05-10T14:49:09;18.30;1.00
19868;DHT22;10096;51.112;6.776;2023-05-10T14:51:37;18.40;1.00
19868;DHT22;10096;51.112;6.776;2023-05-10T14:54:12;18.50;1.00
19868;DHT22;10096;51.112;6.776;2023-05-10T14:56:44;18.70;1.00
19868;DHT22;10096;51.112;6.776;2023-05-10T14:59:21;18.70;1.00
19868;DHT22;10096;51.112;6.776;2023-05-10T15:01:49;18.70;1.00
19868;DHT22;10096;51.112;6.776;2023-05-10T15:04:29;18.80;1.00
19868;DHT22;10096;51.112;6.776;2023-05-10T15:07:02;19.10;1.00
19868;DHT22;10096;51.112;6.776;2023-05-10T15:09:33;18.80;1.00
19868;DHT22;10096;51.112;6.776;2023-05-10T15:12:04;19.00;1.00
19868;DHT22;10096;51.112;6.776;2023-05-10T15:14:31;19.30;1.00
19868;DHT22;10096;51.112;6.776;2023-05-10T15:17:06;19.30;1.00
19868;DHT22;10096;51.112;6.776;2023-05-10T15:19:43;19.50;1.00
19868;DHT22;10096;51.112;6.776;2023-05-10T15:22:14;19.60;1.00
19868;DHT22;10096;51.112;6.776;2023-05-10T15:25:01;19.70;1.00
19868;DHT22;10096;51.112;6.776;2023-05-10T15:27:35;19.50;1.00
19868;DHT22;10096;51.112;6.776;2023-05-10T15:30:04;19.50;1.00
19868;DHT22;10096;51.112;6.776;2023-05-10T15:32:33;19.50;1.00
19868;DHT22;10096;51.112;6.776;2023-05-10T15:35:03;19.40;1.00
19868;DHT22;10096;51.112;6.776;2023-05-10T15:37:31;19.30;1.00
19868;DHT22;10096;51.112;6.776;2023-05-10T15:40:04;19.40;1.00
19868;DHT22;10096;51.112;6.776;2023-05-10T15:42:34;19.30;1.00
19868;DHT22;10096;51.112;6.776;2023-05-10T15:45:02;19.40;1.00
19868;DHT22;10096;51.112;6.776;2023-05-10T15:47:30;19.40;1.00
19868;DHT22;10096;51.112;6.776;2023-05-10T15:49:58;19.30;1.00
19868;DHT22;10096;51.112;6.776;2023-05-10T15:52:27;19.60;1.00
19868;DHT22;10096;51.112;6.776;2023-05-10T15:54:57;19.60;1.00
19868;DHT22;10096;51.112;6.776;2023-05-10T15:57:27;19.60;1.00
19868;DHT22;10096;51.112;6.776;2023-05-10T15:59:54;19.60;1.00
19868;DHT22;10096;51.112;6.776;2023-05-10T16:02:21;19.60;1.00
19868;DHT22;10096;51.112;6.776;2023-05-10T16:04:50;19.40;1.00
19868;DHT22;10096;51.112;6.776;2023-05-10T16:07:20;19.40;1.00
19868;DHT22;10096;51.112;6.776;2023-05-10T16:09:53;19.30;99.90
19868;DHT22;10096;51.112;6.776;2023-05-10T16:12:26;19.50;1.00
19868;DHT22;10096;51.112;6.776;2023-05-10T16:15:00;19.30;1.00
19868;DHT22;10096;51.112;6.776;2023-05-10T16:17:28;19.10;1.00